createdAt,value
2022-10-28T00:01:29.986Z,11.71
2022-10-28T00:04:00.360Z,11.74
2022-10-28T00:06:34.476Z,11.75
2022-10-28T00:09:03.792Z,11.78
2022-10-28T00:11:34.691Z,11.81
2022-10-28T00:14:07.329Z,11.80
2022-10-28T00:16:40.340Z,11.78
2022-10-28T00:19:11.071Z,11.77
2022-10-28T00:21:43.878Z,11.70
2022-10-28T00:24:14.494Z,11.69
2022-10-28T00:26:46.344Z,11.61
2022-10-28T00:29:16.291Z,11.48
2022-10-28T00:31:47.311Z,11.56
2022-10-28T00:34:19.822Z,11.64
2022-10-28T00:36:48.094Z,11.68
2022-10-28T00:39:21.089Z,11.70
2022-10-28T00:41:55.407Z,11.69
2022-10-28T00:44:53.532Z,11.83
2022-10-28T00:47:57.655Z,11.73
2022-10-28T00:50:41.214Z,11.81
2022-10-28T00:53:14.673Z,11.81
2022-10-28T00:55:45.256Z,11.75
2022-10-28T00:58:12.816Z,11.71
2022-10-28T01:00:40.678Z,11.67
2022-10-28T01:03:10.608Z,11.67
2022-10-28T01:05:41.753Z,11.80
2022-10-28T01:08:09.517Z,11.75
2022-10-28T01:10:54.818Z,11.58
2022-10-28T01:13:37.144Z,11.59
2022-10-28T01:16:35.578Z,11.56
2022-10-28T01:19:36.625Z,11.64
2022-10-28T01:22:03.913Z,11.79
2022-10-28T01:24:43.405Z,11.74
2022-10-28T01:27:37.955Z,11.58
2022-10-28T01:30:21.552Z,11.59
2022-10-28T01:32:58.499Z,11.72
2022-10-28T01:35:54.274Z,11.73
2022-10-28T01:39:00.269Z,11.76
2022-10-28T01:41:34.229Z,11.80
2022-10-28T01:44:20.889Z,11.84
2022-10-28T01:47:20.304Z,11.98
2022-10-28T01:50:05.714Z,11.86
2022-10-28T01:52:33.330Z,11.87
2022-10-28T01:55:11.924Z,11.54
2022-10-28T01:57:42.105Z,11.54
2022-10-28T02:00:13.792Z,11.60
2022-10-28T02:02:45.173Z,11.73
2022-10-28T02:05:45.029Z,11.85
2022-10-28T02:08:21.087Z,11.98
2022-10-28T02:11:22.673Z,11.96
2022-10-28T02:14:10.337Z,12.01
2022-10-28T02:16:51.648Z,12.00
2022-10-28T02:19:39.095Z,12.01
2022-10-28T02:22:18.601Z,11.77
2022-10-28T02:24:48.459Z,11.73
2022-10-28T02:27:32.466Z,11.57
2022-10-28T02:30:15.424Z,11.51
2022-10-28T02:32:46.935Z,11.61
2022-10-28T02:35:25.051Z,11.54
2022-10-28T02:37:54.129Z,11.48
2022-10-28T02:40:27.968Z,11.55
2022-10-28T02:43:00.021Z,11.58
2022-10-28T02:45:33.311Z,11.68
2022-10-28T02:48:07.482Z,11.81
2022-10-28T02:50:38.234Z,11.63
2022-10-28T02:53:14.662Z,11.56
2022-10-28T02:55:44.940Z,11.42
2022-10-28T02:58:12.487Z,11.13
2022-10-28T03:00:44.948Z,11.04
2022-10-28T03:03:12.943Z,10.95
2022-10-28T03:05:42.839Z,10.82
2022-10-28T03:08:10.227Z,10.86
2022-10-28T03:10:37.356Z,10.71
2022-10-28T03:13:04.695Z,10.74
2022-10-28T03:15:31.927Z,10.96
2022-10-28T03:17:59.295Z,11.16
2022-10-28T03:20:26.419Z,11.13
2022-10-28T03:22:53.988Z,11.01
2022-10-28T03:25:21.412Z,11.01
2022-10-28T03:27:48.754Z,11.01
2022-10-28T03:30:18.502Z,11.13
2022-10-28T03:32:45.953Z,11.13
2022-10-28T03:35:13.235Z,11.07
2022-10-28T03:37:44.439Z,11.03
2022-10-28T03:40:12.300Z,10.96
2022-10-28T03:42:42.644Z,10.91
2022-10-28T03:45:10.268Z,10.92
2022-10-28T03:47:37.743Z,10.83
2022-10-28T03:50:05.136Z,10.75
2022-10-28T03:52:33.107Z,10.79
2022-10-28T03:55:00.289Z,10.80
2022-10-28T03:57:31.657Z,10.76
2022-10-28T03:59:59.036Z,10.83
2022-10-28T04:02:26.963Z,10.93
2022-10-28T04:04:54.272Z,10.86
2022-10-28T04:07:21.750Z,11.00
2022-10-28T04:09:51.469Z,10.88
2022-10-28T04:12:19.228Z,10.89
2022-10-28T04:14:46.476Z,10.94
2022-10-28T04:17:14.006Z,10.93
2022-10-28T04:19:41.145Z,10.96
2022-10-28T04:22:09.815Z,10.89
2022-10-28T04:24:36.990Z,10.92
2022-10-28T04:27:04.491Z,10.91
2022-10-28T04:29:32.186Z,10.87
2022-10-28T04:31:59.717Z,10.61
2022-10-28T04:34:27.273Z,10.70
2022-10-28T04:36:54.703Z,10.62
2022-10-28T04:39:21.859Z,10.52
2022-10-28T04:41:49.315Z,10.46
2022-10-28T04:44:16.552Z,10.46
2022-10-28T04:46:44.960Z,10.46
2022-10-28T04:49:12.659Z,10.39
2022-10-28T04:51:41.564Z,10.27
2022-10-28T04:54:11.406Z,10.25
2022-10-28T04:56:38.801Z,10.14
2022-10-28T04:59:05.947Z,10.21
2022-10-28T05:01:33.629Z,10.04
2022-10-28T05:04:00.906Z,10.09
2022-10-28T05:06:28.267Z,10.02
2022-10-28T05:08:55.736Z,10.03
2022-10-28T05:11:23.156Z,9.99
2022-10-28T05:13:53.123Z,9.84
2022-10-28T05:16:20.871Z,9.71
2022-10-28T05:18:48.350Z,9.57
2022-10-28T05:21:15.784Z,9.57
2022-10-28T05:23:43.094Z,9.62
2022-10-28T05:26:13.183Z,9.70
2022-10-28T05:28:40.400Z,9.64
2022-10-28T05:31:07.829Z,9.56
2022-10-28T05:33:35.107Z,9.53
2022-10-28T05:36:02.519Z,9.57
2022-10-28T05:38:29.768Z,9.52
2022-10-28T05:40:57.151Z,9.45
2022-10-28T05:43:24.422Z,9.51
2022-10-28T05:45:53.087Z,9.48
2022-10-28T05:48:20.225Z,9.52
2022-10-28T05:50:47.647Z,9.40
2022-10-28T05:53:15.295Z,9.38
2022-10-28T05:55:46.681Z,9.27
2022-10-28T05:58:15.581Z,9.39
2022-10-28T06:00:42.936Z,9.63
2022-10-28T06:03:12.287Z,9.46
2022-10-28T06:05:42.388Z,9.46
2022-10-28T06:08:11.434Z,9.60
2022-10-28T06:10:39.006Z,9.53
2022-10-28T06:13:05.264Z,9.57
2022-10-28T06:15:32.749Z,9.57
2022-10-28T06:18:00.009Z,9.59
2022-10-28T06:20:27.439Z,9.55
2022-10-28T06:22:55.733Z,9.61
2022-10-28T06:25:25.327Z,9.56
2022-10-28T06:27:57.698Z,9.56
2022-10-28T06:30:26.354Z,9.68
2022-10-28T06:32:56.815Z,9.52
2022-10-28T06:35:24.304Z,9.61
2022-10-28T06:37:57.562Z,9.57
2022-10-28T06:40:25.749Z,9.56
2022-10-28T06:43:00.122Z,9.64
2022-10-28T06:45:28.966Z,9.62
2022-10-28T06:48:04.030Z,9.71
2022-10-28T06:50:33.815Z,9.71
2022-10-28T06:53:01.232Z,9.86
2022-10-28T06:55:29.474Z,9.78
2022-10-28T06:58:03.410Z,9.97
2022-10-28T07:00:37.714Z,9.99
2022-10-28T07:03:05.748Z,10.10
2022-10-28T07:05:35.716Z,9.88
2022-10-28T07:08:02.910Z,9.96
2022-10-28T07:10:30.447Z,9.82
2022-10-28T07:12:57.984Z,10.17
2022-10-28T07:15:25.470Z,10.10
2022-10-28T07:17:53.996Z,10.00
2022-10-28T07:20:22.511Z,10.17
2022-10-28T07:22:59.395Z,10.31
2022-10-28T07:25:28.952Z,10.36
2022-10-28T07:27:59.734Z,10.75
2022-10-28T07:30:28.702Z,11.03
2022-10-28T07:32:58.628Z,11.35
2022-10-28T07:35:26.073Z,11.53
2022-10-28T07:37:53.946Z,11.32
2022-10-28T07:40:24.125Z,11.23
2022-10-28T07:42:51.729Z,11.28
2022-10-28T07:45:19.634Z,11.19
2022-10-28T07:47:47.141Z,11.19
2022-10-28T07:50:14.554Z,11.45
2022-10-28T07:52:41.709Z,11.50
2022-10-28T07:55:11.025Z,11.74
2022-10-28T07:57:38.318Z,12.05
2022-10-28T08:00:07.351Z,12.12
2022-10-28T08:02:42.126Z,12.00
2022-10-28T08:05:10.032Z,11.98
2022-10-28T08:07:38.743Z,12.15
2022-10-28T08:10:07.191Z,12.19
2022-10-28T08:12:34.637Z,13.00
2022-10-28T08:15:02.845Z,12.95
2022-10-28T08:17:30.430Z,13.30
2022-10-28T08:19:57.920Z,13.05
2022-10-28T08:22:25.221Z,13.26
2022-10-28T08:24:52.679Z,13.94
2022-10-28T08:27:19.824Z,14.43
2022-10-28T08:29:47.208Z,15.09
2022-10-28T08:32:14.392Z,15.61
2022-10-28T08:34:43.994Z,16.86
2022-10-28T08:37:11.466Z,18.02
2022-10-28T08:39:38.854Z,19.32
2022-10-28T08:42:09.123Z,20.60
2022-10-28T08:44:55.588Z,19.79
2022-10-28T08:50:37.946Z,21.20
2022-10-28T08:53:15.241Z,22.36
2022-10-28T08:55:50.028Z,22.94
2022-10-28T08:58:38.815Z,24.29
2022-10-28T09:01:14.198Z,24.58
2022-10-28T09:03:45.332Z,24.11
2022-10-28T09:06:12.801Z,23.51
2022-10-28T09:08:46.670Z,23.34
2022-10-28T09:11:24.801Z,21.29
2022-10-28T09:14:03.480Z,21.71
2022-10-28T09:16:48.930Z,23.31
2022-10-28T09:19:31.917Z,23.38
2022-10-28T09:22:08.571Z,24.13
2022-10-28T09:24:53.012Z,23.24
2022-10-28T09:28:02.010Z,22.94
2022-10-28T09:30:44.710Z,24.28
2022-10-28T09:33:57.856Z,24.05
2022-10-28T09:36:35.687Z,24.17
2022-10-28T09:39:05.743Z,24.84
2022-10-28T09:41:37.695Z,24.93
2022-10-28T09:44:18.572Z,25.25
2022-10-28T09:46:52.736Z,24.58
2022-10-28T09:49:28.497Z,24.95
2022-10-28T09:52:15.200Z,24.38
2022-10-28T09:54:51.528Z,24.08
2022-10-28T09:57:29.196Z,25.05
2022-10-28T09:59:56.751Z,24.70
2022-10-28T10:02:27.783Z,25.61
2022-10-28T10:04:57.543Z,25.21
2022-10-28T10:07:48.163Z,21.05
2022-10-28T10:10:31.470Z,20.24
2022-10-28T10:13:04.491Z,20.95
2022-10-28T10:15:46.631Z,20.71
2022-10-28T10:18:20.014Z,21.68
2022-10-28T10:20:50.788Z,20.92
2022-10-28T10:23:24.195Z,20.87
2022-10-28T10:26:13.588Z,21.23
2022-10-28T10:28:49.142Z,20.95
2022-10-28T10:31:25.563Z,21.44
2022-10-28T10:33:56.178Z,22.42
2022-10-28T10:36:29.670Z,22.75
2022-10-28T10:38:59.170Z,23.60
2022-10-28T10:41:55.274Z,22.83
2022-10-28T10:44:22.535Z,22.71
2022-10-28T10:47:06.547Z,21.64
2022-10-28T10:49:37.768Z,22.53
2022-10-28T10:52:15.930Z,22.05
2022-10-28T10:54:56.626Z,22.34
2022-10-28T10:57:28.849Z,20.92
2022-10-28T10:59:59.586Z,20.37
2022-10-28T11:02:40.090Z,20.29
2022-10-28T11:05:09.976Z,19.78
2022-10-28T11:07:45.232Z,19.26
2022-10-28T11:10:27.675Z,19.13
2022-10-28T11:13:26.139Z,19.09
2022-10-28T11:16:04.865Z,19.00
2022-10-28T11:18:43.864Z,18.82
2022-10-28T11:21:32.326Z,18.72
2022-10-28T11:24:08.984Z,18.72
2022-10-28T11:26:45.158Z,18.81
2022-10-28T11:29:15.768Z,19.08
2022-10-28T11:31:50.994Z,19.13
2022-10-28T11:34:36.858Z,19.18
2022-10-28T11:37:09.563Z,19.20
2022-10-28T11:39:46.056Z,19.07
2022-10-28T11:42:35.056Z,18.83
2022-10-28T11:45:14.611Z,18.76
2022-10-28T11:48:00.162Z,18.69
2022-10-28T11:50:45.969Z,18.37
2022-10-28T11:53:31.659Z,18.15
2022-10-28T11:56:11.311Z,17.92
2022-10-28T11:59:00.265Z,17.76
2022-10-28T12:01:44.864Z,17.62
2022-10-28T12:04:42.387Z,17.62
2022-10-28T12:07:22.075Z,17.78
2022-10-28T12:09:59.507Z,17.72
2022-10-28T12:12:29.924Z,17.82
2022-10-28T12:15:34.406Z,17.89
2022-10-28T12:18:11.418Z,17.98
2022-10-28T12:20:59.711Z,18.08
2022-10-28T12:23:29.593Z,18.20
2022-10-28T12:25:59.298Z,18.12
2022-10-28T12:28:42.412Z,18.12
2022-10-28T12:31:22.955Z,18.03
2022-10-28T12:33:55.811Z,18.07
2022-10-28T12:36:38.488Z,18.33
2022-10-28T12:39:18.530Z,18.49
2022-10-28T12:42:10.125Z,18.71
2022-10-28T12:44:38.858Z,18.78
2022-10-28T12:47:23.935Z,18.72
2022-10-28T12:49:57.081Z,18.58
2022-10-28T12:52:42.388Z,18.36
2022-10-28T12:55:39.920Z,18.43
2022-10-28T12:58:24.236Z,18.60
2022-10-28T13:00:57.440Z,18.57
2022-10-28T13:03:24.658Z,18.69
2022-10-28T13:06:06.022Z,18.85
2022-10-28T13:09:04.375Z,18.97
2022-10-28T13:11:43.700Z,18.97
2022-10-28T13:14:29.669Z,18.92
2022-10-28T13:16:59.864Z,18.89
2022-10-28T13:19:51.086Z,18.73
2022-10-28T13:22:30.525Z,18.53
2022-10-28T13:25:39.286Z,18.46
2022-10-28T13:28:13.792Z,18.37
2022-10-28T13:30:59.385Z,18.46
2022-10-28T13:33:28.759Z,18.36
2022-10-28T13:36:18.007Z,18.46
2022-10-28T13:39:06.942Z,18.28
2022-10-28T13:41:40.954Z,18.39
2022-10-28T13:44:10.813Z,18.57
2022-10-28T13:46:59.998Z,18.56
2022-10-28T13:49:31.168Z,18.56
2022-10-28T13:52:07.309Z,18.67
2022-10-28T13:54:43.775Z,18.46
2022-10-28T13:57:26.663Z,18.53
2022-10-28T14:00:04.423Z,18.43
2022-10-28T14:02:56.665Z,18.43
2022-10-28T14:05:47.155Z,18.34
2022-10-28T14:08:35.570Z,18.21
2022-10-28T14:11:24.058Z,18.17
2022-10-28T14:13:59.953Z,18.15
2022-10-28T14:16:34.077Z,17.90
2022-10-28T14:19:21.379Z,17.87
2022-10-28T14:22:02.285Z,17.85
2022-10-28T14:24:32.977Z,17.60
2022-10-28T14:27:10.002Z,17.52
2022-10-28T14:29:50.653Z,17.34
2022-10-28T14:32:33.161Z,17.23
2022-10-28T14:35:15.524Z,17.13
2022-10-28T14:37:48.970Z,17.07
2022-10-28T14:40:38.673Z,17.00
2022-10-28T14:43:11.189Z,16.83
2022-10-28T14:45:50.561Z,16.80
2022-10-28T14:48:44.205Z,16.67
2022-10-28T14:51:24.493Z,16.54
2022-10-28T14:53:58.892Z,16.53
2022-10-28T14:56:29.838Z,16.43
2022-10-28T14:59:36.766Z,16.37
2022-10-28T15:02:17.800Z,16.25
2022-10-28T15:04:47.452Z,16.13
2022-10-28T15:07:17.738Z,16.07
2022-10-28T15:09:48.879Z,16.00
2022-10-28T15:12:18.007Z,15.96
2022-10-28T15:14:47.901Z,15.96
2022-10-28T15:17:18.693Z,15.88
2022-10-28T15:19:49.410Z,15.73
2022-10-28T15:22:30.836Z,15.61
2022-10-28T15:24:59.385Z,15.49
2022-10-28T15:27:29.908Z,15.60
2022-10-28T15:29:57.986Z,15.50
2022-10-28T15:32:29.737Z,15.41
2022-10-28T15:34:57.706Z,15.21
2022-10-28T15:37:36.601Z,15.33
2022-10-28T15:40:40.848Z,15.13
2022-10-28T15:43:26.560Z,15.18
2022-10-28T15:45:54.388Z,15.10
2022-10-28T15:48:27.317Z,14.94
2022-10-28T15:51:17.773Z,14.82
2022-10-28T15:53:53.925Z,14.58
2022-10-28T15:56:29.906Z,14.58
2022-10-28T15:59:07.196Z,14.57
2022-10-28T16:01:35.410Z,14.57
2022-10-28T16:04:02.793Z,14.62
2022-10-28T16:06:32.698Z,14.66
2022-10-28T16:09:20.137Z,14.65
2022-10-28T16:11:56.298Z,14.47
2022-10-28T16:14:39.660Z,14.47
2022-10-28T16:17:20.105Z,14.51
2022-10-28T16:20:15.373Z,14.53
2022-10-28T16:22:46.710Z,14.52
2022-10-28T16:25:16.845Z,14.61
2022-10-28T16:27:44.300Z,14.65
2022-10-28T16:30:12.015Z,14.48
2022-10-28T16:32:49.632Z,14.43
2022-10-28T16:35:19.143Z,14.44
2022-10-28T16:37:50.679Z,14.42
2022-10-28T16:43:15.362Z,14.24
2022-10-28T16:45:42.575Z,14.16
2022-10-28T16:48:13.847Z,13.94
2022-10-28T16:50:42.920Z,14.02
2022-10-28T16:53:12.958Z,13.83
2022-10-28T16:55:40.750Z,13.87
2022-10-28T16:58:08.296Z,13.74
2022-10-28T17:00:36.403Z,13.75
2022-10-28T17:03:04.120Z,13.86
2022-10-28T17:05:31.628Z,13.86
2022-10-28T17:07:59.933Z,13.87
2022-10-28T17:10:27.682Z,13.72
2022-10-28T17:12:55.593Z,13.71
2022-10-28T17:15:23.386Z,13.59
2022-10-28T17:17:52.329Z,13.81
2022-10-28T17:20:19.968Z,13.81
2022-10-28T17:22:47.809Z,13.87
2022-10-28T17:25:15.114Z,13.62
2022-10-28T17:27:42.915Z,13.31
2022-10-28T17:30:10.708Z,13.31
2022-10-28T17:32:38.145Z,13.28
2022-10-28T17:35:05.623Z,13.01
2022-10-28T17:37:33.813Z,12.95
2022-10-28T17:40:01.169Z,12.95
2022-10-28T17:42:29.092Z,13.12
2022-10-28T17:44:56.386Z,13.14
2022-10-28T17:47:23.813Z,12.94
2022-10-28T17:49:51.010Z,13.04
2022-10-28T17:52:18.470Z,12.92
2022-10-28T17:54:46.131Z,12.87
2022-10-28T17:57:13.569Z,12.92
2022-10-28T17:59:40.813Z,12.82
2022-10-28T18:02:12.677Z,12.95
2022-10-28T18:04:40.765Z,12.88
2022-10-28T18:07:08.451Z,12.90
2022-10-28T18:09:35.685Z,12.81
2022-10-28T18:12:03.168Z,12.80
2022-10-28T18:14:30.701Z,12.87
2022-10-28T18:16:58.131Z,12.74
2022-10-28T18:19:25.442Z,12.76
2022-10-28T18:21:52.816Z,12.68
2022-10-28T18:24:23.328Z,12.64
2022-10-28T18:26:54.458Z,12.63
2022-10-28T18:29:21.767Z,12.51
2022-10-28T18:31:49.278Z,12.57
2022-10-28T18:34:16.657Z,12.67
2022-10-28T18:36:44.195Z,12.59
2022-10-28T18:39:11.414Z,12.58
2022-10-28T18:41:42.014Z,12.64
2022-10-28T18:44:12.161Z,12.53
2022-10-28T18:46:40.310Z,12.54
2022-10-28T18:49:07.632Z,12.44
2022-10-28T18:51:35.701Z,12.46
2022-10-28T18:54:03.589Z,12.54
2022-10-28T18:56:30.859Z,12.65
2022-10-28T18:58:58.937Z,12.54
2022-10-28T19:01:28.739Z,12.49
2022-10-28T19:03:58.350Z,12.30
2022-10-28T19:06:29.959Z,12.16
2022-10-28T19:08:59.574Z,12.11
2022-10-28T19:11:30.401Z,12.16
2022-10-28T19:14:00.249Z,12.17
2022-10-28T19:16:28.608Z,12.18
2022-10-28T19:18:57.296Z,12.12
2022-10-28T19:21:25.670Z,12.08
2022-10-28T19:23:52.999Z,11.99
2022-10-28T19:26:20.838Z,11.96
2022-10-28T19:28:49.338Z,12.16
2022-10-28T19:31:19.535Z,12.12
2022-10-28T19:33:46.852Z,12.05
2022-10-28T19:36:18.816Z,11.99
2022-10-28T19:38:46.803Z,12.01
2022-10-28T19:41:16.464Z,11.89
2022-10-28T19:43:44.909Z,11.84
2022-10-28T19:46:18.551Z,12.00
2022-10-28T19:48:48.111Z,11.98
2022-10-28T19:51:18.041Z,12.03
2022-10-28T19:53:48.939Z,12.00
2022-10-28T19:56:19.424Z,11.99
2022-10-28T19:58:51.431Z,11.92
2022-10-28T20:01:19.795Z,11.96
2022-10-28T20:03:49.419Z,11.92
2022-10-28T20:06:19.232Z,11.90
2022-10-28T20:08:48.152Z,11.95
2022-10-28T20:11:21.382Z,12.07
2022-10-28T20:13:54.009Z,12.01
2022-10-28T20:16:21.695Z,12.08
2022-10-28T20:18:49.208Z,12.07
2022-10-28T20:21:18.922Z,12.16
2022-10-28T20:26:23.786Z,12.14
2022-10-28T20:28:51.043Z,12.25
2022-10-28T20:31:21.042Z,12.40
2022-10-28T20:33:56.868Z,12.23
2022-10-28T20:36:32.690Z,12.21
2022-10-28T20:39:09.674Z,12.16
2022-10-28T20:41:38.586Z,12.28
2022-10-28T20:44:06.584Z,12.31
2022-10-28T20:46:34.677Z,12.38
2022-10-28T20:49:02.955Z,12.29
2022-10-28T20:51:31.737Z,12.29
2022-10-28T20:53:59.969Z,12.20
2022-10-28T20:56:29.755Z,12.08
2022-10-28T20:59:00.378Z,12.19
2022-10-28T21:01:45.926Z,12.23
2022-10-28T21:04:13.785Z,12.22
2022-10-28T21:06:41.067Z,12.40
2022-10-28T21:09:09.035Z,12.46
2022-10-28T21:11:36.254Z,12.56
2022-10-28T21:14:03.743Z,12.90
2022-10-28T21:16:31.419Z,12.85
2022-10-28T21:19:02.324Z,12.95
2022-10-28T21:21:30.348Z,13.07
2022-10-28T21:24:00.464Z,13.24
2022-10-28T21:26:27.792Z,13.36
2022-10-28T21:28:56.497Z,13.54
2022-10-28T21:31:24.779Z,13.57
2022-10-28T21:33:53.431Z,13.51
2022-10-28T21:36:21.944Z,13.63
2022-10-28T21:38:54.316Z,13.79
2022-10-28T21:41:22.611Z,13.81
2022-10-28T21:43:51.694Z,13.87
2022-10-28T21:46:20.352Z,13.90
2022-10-28T21:48:48.054Z,13.91
2022-10-28T21:51:16.806Z,13.85
2022-10-28T21:53:45.226Z,13.90
2022-10-28T21:56:19.039Z,13.99
2022-10-28T21:58:48.443Z,14.04
2022-10-28T22:01:21.293Z,14.13
2022-10-28T22:03:49.291Z,14.15
2022-10-28T22:06:16.583Z,14.08
2022-10-28T22:08:44.275Z,14.02
2022-10-28T22:11:17.231Z,14.14
2022-10-28T22:13:45.137Z,14.15
2022-10-28T22:16:14.958Z,14.06
2022-10-28T22:18:42.660Z,14.13
2022-10-28T22:21:11.859Z,14.13
2022-10-28T22:23:39.240Z,14.18
2022-10-28T22:26:09.053Z,13.98
2022-10-28T22:28:37.019Z,14.08
2022-10-28T22:31:07.657Z,14.14
2022-10-28T22:33:35.821Z,13.97
2022-10-28T22:36:14.961Z,13.98
2022-10-28T22:38:42.797Z,13.97
2022-10-28T22:41:14.845Z,13.84
2022-10-28T22:43:42.826Z,13.84
2022-10-28T22:46:11.075Z,13.64
2022-10-28T22:48:38.522Z,13.73
2022-10-28T22:51:06.385Z,13.62
2022-10-28T22:53:33.652Z,13.54
2022-10-28T22:56:01.383Z,13.50
2022-10-28T22:58:28.789Z,13.51
2022-10-28T23:01:17.363Z,13.61
2022-10-28T23:03:48.348Z,13.63
2022-10-28T23:06:19.285Z,13.75
2022-10-28T23:08:47.237Z,13.67
2022-10-28T23:11:15.671Z,13.62
2022-10-28T23:13:43.152Z,13.52
2022-10-28T23:16:12.925Z,13.42
2022-10-28T23:18:41.136Z,13.51
2022-10-28T23:21:18.453Z,13.51
2022-10-28T23:23:51.096Z,13.51
2022-10-28T23:26:21.587Z,13.33
2022-10-28T23:28:54.076Z,13.38
2022-10-28T23:31:22.530Z,13.26
2022-10-28T23:33:50.434Z,13.43
2022-10-28T23:36:17.882Z,13.34
2022-10-28T23:38:45.144Z,13.50
2022-10-28T23:41:18.647Z,13.46
2022-10-28T23:43:47.069Z,13.39
2022-10-28T23:46:14.611Z,13.41
2022-10-28T23:48:41.783Z,13.40
2022-10-28T23:51:09.461Z,13.53
2022-10-28T23:53:36.867Z,13.57
2022-10-28T23:56:04.478Z,13.55
2022-10-28T23:58:31.652Z,13.47
